Summit Station, Pennsylvania
Current Conditions -  °F | °C
As of 2:54 PM on Thursday 20 Nov 2014 (Local Time) from KRDG Reporting Station
Clear Clear  
Wind Chill: 36°   Ceiling: Unl
Heat Index: 44°   Visibility: 10mi
Dew Point: 16°   Wind: 17mph
Humidity: 32%   Direction: 290°WNW
Pressure: 29.87"   Gusts: 23mph
Location:  40.56°N, 76.2°W
Report Text: KRDG 201954Z 29015G20KT 10SM CLR 07/M09 A2987 RMK AO2 SLP123 T00671089
Loading
Personal Weather Stations






























Interactive Weather Map New forecast layout! Learn more

10-Day Weather Forecast

Advertisements
Track Severe Weather on mobile